sensor_id;sensor_type;location;lat;lon;timestamp;pressure;altitude;pressure_sealevel;temperature;humidity
51297;BME280;37380;45.186;9.792;2023-03-26T00:01:22;100557.91;;;10.47;92.36
51297;BME280;37380;45.186;9.792;2023-03-26T00:03:50;100580.63;;;10.49;94.16
51297;BME280;37380;45.186;9.792;2023-03-26T00:06:23;100558.06;;;10.26;94.67
51297;BME280;37380;45.186;9.792;2023-03-26T00:08:51;100574.06;;;10.35;94.08
51297;BME280;37380;45.186;9.792;2023-03-26T00:11:21;100575.06;;;10.38;92.05
51297;BME280;37380;45.186;9.792;2023-03-26T00:13:48;100577.03;;;10.73;86.57
51297;BME280;37380;45.186;9.792;2023-03-26T00:16:17;100501.47;;;10.25;87.42
51297;BME280;37380;45.186;9.792;2023-03-26T00:18:51;100571.03;;;10.48;89.68
51297;BME280;37380;45.186;9.792;2023-03-26T00:21:46;100585.56;;;10.40;89.39
51297;BME280;37380;45.186;9.792;2023-03-26T00:24:14;100508.75;;;10.09;86.66
51297;BME280;37380;45.186;9.792;2023-03-26T00:26:42;100588.69;;;10.82;84.66
51297;BME280;37380;45.186;9.792;2023-03-26T00:29:11;100533.81;;;10.55;84.89
51297;BME280;37380;45.186;9.792;2023-03-26T00:31:47;100594.69;;;9.78;93.75
51297;BME280;37380;45.186;9.792;2023-03-26T00:34:40;100630.81;;;9.67;93.79
51297;BME280;37380;45.186;9.792;2023-03-26T00:37:38;100574.34;;;9.45;90.90
51297;BME280;37380;45.186;9.792;2023-03-26T00:40:08;100603.44;;;9.56;91.01
51297;BME280;37380;45.186;9.792;2023-03-26T00:42:37;100528.06;;;9.15;90.78
51297;BME280;37380;45.186;9.792;2023-03-26T00:45:05;100591.72;;;9.68;90.11
51297;BME280;37380;45.186;9.792;2023-03-26T00:47:40;100626.75;;;9.99;88.36
51297;BME280;37380;45.186;9.792;2023-03-26T00:50:34;100584.81;;;9.69;88.90
51297;BME280;37380;45.186;9.792;2023-03-26T00:53:01;100601.56;;;9.75;89.51
51297;BME280;37380;45.186;9.792;2023-03-26T00:55:36;100593.38;;;9.90;89.45
51297;BME280;37380;45.186;9.792;2023-03-26T00:58:30;100582.94;;;9.90;89.29
51297;BME280;37380;45.186;9.792;2023-03-26T01:01:00;100615.09;;;10.13;88.27
51297;BME280;37380;45.186;9.792;2023-03-26T01:03:31;100582.19;;;9.93;87.13
51297;BME280;37380;45.186;9.792;2023-03-26T01:06:03;100608.50;;;10.25;87.50
51297;BME280;37380;45.186;9.792;2023-03-26T01:08:47;100565.00;;;10.00;91.20
51297;BME280;37380;45.186;9.792;2023-03-26T01:11:24;100604.56;;;10.12;99.59
51297;BME280;37380;45.186;9.792;2023-03-26T01:14:00;100560.19;;;9.86;100.00
51297;BME280;37380;45.186;9.792;2023-03-26T01:19:41;100570.75;;;9.65;100.00
51297;BME280;37380;45.186;9.792;2023-03-26T01:22:39;100534.56;;;9.50;100.00
51297;BME280;37380;45.186;9.792;2023-03-26T01:25:08;100565.03;;;9.75;100.00
51297;BME280;37380;45.186;9.792;2023-03-26T01:27:49;100574.13;;;9.87;100.00
51297;BME280;37380;45.186;9.792;2023-03-26T01:30:33;100555.97;;;9.90;100.00
51297;BME280;37380;45.186;9.792;2023-03-26T01:33:08;100552.94;;;9.78;100.00
51297;BME280;37380;45.186;9.792;2023-03-26T01:46:26;100546.28;;;9.38;100.00
51297;BME280;37380;45.186;9.792;2023-03-26T01:49:30;100544.44;;;9.35;100.00
51297;BME280;37380;45.186;9.792;2023-03-26T01:52:28;100534.09;;;9.37;100.00
51297;BME280;37380;45.186;9.792;2023-03-26T01:55:02;100538.59;;;9.42;100.00
51297;BME280;37380;45.186;9.792;2023-03-26T01:58:18;100571.25;;;9.55;100.00
51297;BME280;37380;45.186;9.792;2023-03-26T02:01:05;100529.41;;;9.52;100.00
51297;BME280;37380;45.186;9.792;2023-03-26T02:03:45;100554.28;;;9.66;100.00
51297;BME280;37380;45.186;9.792;2023-03-26T02:06:24;100553.13;;;9.60;100.00
51297;BME280;37380;45.186;9.792;2023-03-26T02:09:05;100502.66;;;9.34;100.00
51297;BME280;37380;45.186;9.792;2023-03-26T02:11:36;100524.53;;;9.37;100.00
51297;BME280;37380;45.186;9.792;2023-03-26T02:14:04;100547.44;;;9.46;100.00
51297;BME280;37380;45.186;9.792;2023-03-26T02:16:33;100496.19;;;9.22;100.00
51297;BME280;37380;45.186;9.792;2023-03-26T02:19:07;100528.63;;;9.55;100.00
51297;BME280;37380;45.186;9.792;2023-03-26T02:22:11;100536.94;;;9.68;100.00
51297;BME280;37380;45.186;9.792;2023-03-26T02:24:43;100556.44;;;9.78;100.00
51297;BME280;37380;45.186;9.792;2023-03-26T02:27:12;100530.84;;;9.44;100.00
51297;BME280;37380;45.186;9.792;2023-03-26T02:29:39;100546.69;;;9.74;100.00
51297;BME280;37380;45.186;9.792;2023-03-26T02:32:10;100543.88;;;9.68;100.00
51297;BME280;37380;45.186;9.792;2023-03-26T02:34:40;100544.31;;;9.32;100.00
51297;BME280;37380;45.186;9.792;2023-03-26T02:37:08;100545.22;;;9.33;100.00
51297;BME280;37380;45.186;9.792;2023-03-26T02:39:38;100574.19;;;9.40;100.00
51297;BME280;37380;45.186;9.792;2023-03-26T02:42:16;100504.97;;;9.02;100.00
51297;BME280;37380;45.186;9.792;2023-03-26T02:44:47;100547.66;;;9.28;100.00
51297;BME280;37380;45.186;9.792;2023-03-26T02:47:23;100544.31;;;9.08;100.00
51297;BME280;37380;45.186;9.792;2023-03-26T02:50:43;100551.06;;;9.03;100.00
51297;BME280;37380;45.186;9.792;2023-03-26T02:57:36;100542.34;;;9.02;100.00
51297;BME280;37380;45.186;9.792;2023-03-26T03:00:36;100536.13;;;8.99;100.00
51297;BME280;37380;45.186;9.792;2023-03-26T03:03:29;100560.41;;;9.20;100.00
51297;BME280;37380;45.186;9.792;2023-03-26T03:05:59;100581.66;;;9.31;100.00
51297;BME280;37380;45.186;9.792;2023-03-26T03:08:40;100547.13;;;9.14;100.00
51297;BME280;37380;45.186;9.792;2023-03-26T03:11:28;100580.31;;;9.42;100.00
51297;BME280;37380;45.186;9.792;2023-03-26T03:14:22;100584.28;;;9.55;100.00
51297;BME280;37380;45.186;9.792;2023-03-26T03:16:49;100556.38;;;9.52;100.00
51297;BME280;37380;45.186;9.792;2023-03-26T03:19:23;100537.81;;;9.45;100.00
51297;BME280;37380;45.186;9.792;2023-03-26T03:22:17;100591.34;;;9.82;100.00
51297;BME280;37380;45.186;9.792;2023-03-26T03:24:48;100561.22;;;9.66;100.00
51297;BME280;37380;45.186;9.792;2023-03-26T03:27:18;100569.28;;;9.73;100.00
51297;BME280;37380;45.186;9.792;2023-03-26T03:29:54;100572.25;;;9.59;100.00
51297;BME280;37380;45.186;9.792;2023-03-26T03:32:39;100552.44;;;9.40;100.00
51297;BME280;37380;45.186;9.792;2023-03-26T03:35:15;100583.13;;;9.71;100.00
51297;BME280;37380;45.186;9.792;2023-03-26T03:38:16;100566.47;;;9.43;100.00
51297;BME280;37380;45.186;9.792;2023-03-26T03:41:11;100563.47;;;9.10;100.00
51297;BME280;37380;45.186;9.792;2023-03-26T03:43:41;100514.91;;;8.90;100.00
51297;BME280;37380;45.186;9.792;2023-03-26T03:46:15;100560.41;;;8.98;100.00
51297;BME280;37380;45.186;9.792;2023-03-26T03:48:44;100548.09;;;8.94;100.00
51297;BME280;37380;45.186;9.792;2023-03-26T03:51:23;100553.44;;;8.97;100.00
51297;BME280;37380;45.186;9.792;2023-03-26T03:54:03;100574.84;;;8.90;100.00
51297;BME280;37380;45.186;9.792;2023-03-26T03:57:14;100551.59;;;8.94;100.00
51297;BME280;37380;45.186;9.792;2023-03-26T04:00:14;100568.31;;;8.78;100.00
51297;BME280;37380;45.186;9.792;2023-03-26T04:03:35;100522.75;;;8.67;100.00
51297;BME280;37380;45.186;9.792;2023-03-26T04:06:44;100525.81;;;8.57;100.00
51297;BME280;37380;45.186;9.792;2023-03-26T04:09:14;100491.88;;;8.34;100.00
51297;BME280;37380;45.186;9.792;2023-03-26T04:11:43;100547.53;;;8.57;100.00
51297;BME280;37380;45.186;9.792;2023-03-26T04:14:42;100547.59;;;8.59;100.00
51297;BME280;37380;45.186;9.792;2023-03-26T04:17:24;100551.34;;;8.45;100.00
51297;BME280;37380;45.186;9.792;2023-03-26T04:20:20;100500.09;;;8.02;100.00
51297;BME280;37380;45.186;9.792;2023-03-26T04:22:49;100567.66;;;8.41;100.00
51297;BME280;37380;45.186;9.792;2023-03-26T04:25:19;100557.66;;;8.50;100.00
51297;BME280;37380;45.186;9.792;2023-03-26T04:27:55;100530.88;;;8.33;100.00
51297;BME280;37380;45.186;9.792;2023-03-26T04:30:58;100521.16;;;8.29;100.00
51297;BME280;37380;45.186;9.792;2023-03-26T04:33:37;100492.13;;;8.18;100.00
51297;BME280;37380;45.186;9.792;2023-03-26T04:36:08;100551.16;;;8.40;100.00
51297;BME280;37380;45.186;9.792;2023-03-26T04:38:40;100553.00;;;8.43;100.00
51297;BME280;37380;45.186;9.792;2023-03-26T04:41:13;100576.00;;;8.53;100.00
51297;BME280;37380;45.186;9.792;2023-03-26T04:44:03;100559.44;;;8.31;100.00
51297;BME280;37380;45.186;9.792;2023-03-26T04:46:48;100530.22;;;7.97;100.00
51297;BME280;37380;45.186;9.792;2023-03-26T04:49:25;100524.59;;;7.86;100.00
51297;BME280;37380;45.186;9.792;2023-03-26T04:51:52;100529.34;;;7.75;100.00
51297;BME280;37380;45.186;9.792;2023-03-26T04:54:46;100495.94;;;7.65;100.00
51297;BME280;37380;45.186;9.792;2023-03-26T04:57:41;100569.72;;;8.28;100.00
51297;BME280;37380;45.186;9.792;2023-03-26T05:00:41;100536.34;;;8.18;100.00
51297;BME280;37380;45.186;9.792;2023-03-26T05:03:43;100506.66;;;7.92;100.00
51297;BME280;37380;45.186;9.792;2023-03-26T05:06:38;100573.94;;;8.25;100.00
51297;BME280;37380;45.186;9.792;2023-03-26T05:09:15;100522.63;;;8.01;100.00
51297;BME280;37380;45.186;9.792;2023-03-26T05:12:01;100570.56;;;8.27;100.00
51297;BME280;37380;45.186;9.792;2023-03-26T05:14:36;100554.25;;;8.31;100.00
51297;BME280;37380;45.186;9.792;2023-03-26T05:17:18;100529.47;;;8.20;100.00
51297;BME280;37380;45.186;9.792;2023-03-26T05:20:25;100554.13;;;8.07;100.00
51297;BME280;37380;45.186;9.792;2023-03-26T05:23:29;100560.03;;;8.03;100.00
51297;BME280;37380;45.186;9.792;2023-03-26T05:26:13;100578.63;;;8.33;100.00
51297;BME280;37380;45.186;9.792;2023-03-26T05:28:40;100556.16;;;8.35;100.00
51297;BME280;37380;45.186;9.792;2023-03-26T05:31:28;100487.72;;;8.38;100.00
51297;BME280;37380;45.186;9.792;2023-03-26T05:33:59;100525.84;;;9.02;100.00
51297;BME280;37380;45.186;9.792;2023-03-26T05:36:27;100564.28;;;9.54;100.00
51297;BME280;37380;45.186;9.792;2023-03-26T05:39:17;100560.50;;;9.71;100.00
51297;BME280;37380;45.186;9.792;2023-03-26T05:41:59;100559.56;;;9.93;100.00
51297;BME280;37380;45.186;9.792;2023-03-26T05:44:39;100517.69;;;9.65;100.00
51297;BME280;37380;45.186;9.792;2023-03-26T05:47:15;100560.66;;;10.00;100.00
51297;BME280;37380;45.186;9.792;2023-03-26T05:49:43;100541.13;;;9.89;100.00
51297;BME280;37380;45.186;9.792;2023-03-26T05:52:10;100545.59;;;9.67;100.00
51297;BME280;37380;45.186;9.792;2023-03-26T05:55:10;100499.88;;;9.05;100.00
51297;BME280;37380;45.186;9.792;2023-03-26T05:58:34;100551.97;;;8.60;100.00
51297;BME280;37380;45.186;9.792;2023-03-26T06:01:40;100524.97;;;8.58;100.00
51297;BME280;37380;45.186;9.792;2023-03-26T06:04:16;100529.84;;;8.71;100.00
51297;BME280;37380;45.186;9.792;2023-03-26T06:07:04;100515.88;;;8.92;100.00
51297;BME280;37380;45.186;9.792;2023-03-26T06:09:37;100521.63;;;8.83;100.00
51297;BME280;37380;45.186;9.792;2023-03-26T06:12:07;100500.41;;;8.51;100.00
51297;BME280;37380;45.186;9.792;2023-03-26T06:14:35;100548.78;;;9.12;100.00
51297;BME280;37380;45.186;9.792;2023-03-26T06:17:32;100531.22;;;9.30;100.00
51297;BME280;37380;45.186;9.792;2023-03-26T06:20:42;100546.59;;;9.47;100.00
51297;BME280;37380;45.186;9.792;2023-03-26T06:23:19;100525.22;;;9.33;100.00
51297;BME280;37380;45.186;9.792;2023-03-26T06:26:05;100502.63;;;9.82;100.00
51297;BME280;37380;45.186;9.792;2023-03-26T06:28:56;100559.88;;;11.09;100.00
51297;BME280;37380;45.186;9.792;2023-03-26T06:31:43;100562.56;;;12.36;100.00
51297;BME280;37380;45.186;9.792;2023-03-26T06:34:23;100523.44;;;12.82;100.00
51297;BME280;37380;45.186;9.792;2023-03-26T06:36:52;100558.25;;;13.55;100.00
51297;BME280;37380;45.186;9.792;2023-03-26T06:39:20;100524.56;;;13.32;100.00
51297;BME280;37380;45.186;9.792;2023-03-26T06:42:04;100538.25;;;13.19;100.00
51297;BME280;37380;45.186;9.792;2023-03-26T06:45:23;100541.63;;;12.74;100.00
51297;BME280;37380;45.186;9.792;2023-03-26T06:48:35;100556.06;;;12.57;100.00
51297;BME280;37380;45.186;9.792;2023-03-26T06:51:21;100526.03;;;12.44;100.00
51297;BME280;37380;45.186;9.792;2023-03-26T06:54:18;100541.91;;;12.15;100.00
51297;BME280;37380;45.186;9.792;2023-03-26T06:57:39;100549.78;;;12.50;100.00
51297;BME280;37380;45.186;9.792;2023-03-26T07:00:38;100501.38;;;12.72;100.00
51297;BME280;37380;45.186;9.792;2023-03-26T07:03:57;100465.75;;;12.82;100.00
51297;BME280;37380;45.186;9.792;2023-03-26T07:07:17;100518.50;;;12.21;100.00
51297;BME280;37380;45.186;9.792;2023-03-26T07:10:13;100464.53;;;11.28;100.00
51297;BME280;37380;45.186;9.792;2023-03-26T07:12:55;100510.31;;;11.76;100.00
51297;BME280;37380;45.186;9.792;2023-03-26T07:16:07;100516.38;;;12.07;100.00
51297;BME280;37380;45.186;9.792;2023-03-26T07:19:00;100475.53;;;11.47;100.00
51297;BME280;37380;45.186;9.792;2023-03-26T07:21:54;100477.44;;;12.19;100.00
51297;BME280;37380;45.186;9.792;2023-03-26T07:24:45;100516.97;;;13.46;100.00
51297;BME280;37380;45.186;9.792;2023-03-26T07:45:40;100499.09;;;12.87;100.00
51297;BME280;37380;45.186;9.792;2023-03-26T07:48:43;100483.31;;;12.46;100.00
51297;BME280;37380;45.186;9.792;2023-03-26T07:51:21;100494.03;;;12.19;100.00
51297;BME280;37380;45.186;9.792;2023-03-26T07:54:45;100464.16;;;12.13;100.00
51297;BME280;37380;45.186;9.792;2023-03-26T08:19:22;100411.00;;;12.55;100.00
51297;BME280;37380;45.186;9.792;2023-03-26T08:22:40;100421.06;;;13.18;100.00
51297;BME280;37380;45.186;9.792;2023-03-26T08:25:28;100418.03;;;12.98;100.00
51297;BME280;37380;45.186;9.792;2023-03-26T08:28:12;100385.47;;;12.88;100.00
51297;BME280;37380;45.186;9.792;2023-03-26T08:30:43;100438.09;;;13.39;100.00
51297;BME280;37380;45.186;9.792;2023-03-26T08:33:20;100443.88;;;13.68;100.00
51297;BME280;37380;45.186;9.792;2023-03-26T08:35:48;100426.00;;;13.47;100.00
51297;BME280;37380;45.186;9.792;2023-03-26T08:38:17;100385.16;;;13.64;100.00
51297;BME280;37380;45.186;9.792;2023-03-26T08:49:26;100432.94;;;14.49;100.00
51297;BME280;37380;45.186;9.792;2023-03-26T08:55:57;100430.97;;;13.81;100.00
51297;BME280;37380;45.186;9.792;2023-03-26T09:13:59;100398.13;;;14.05;100.00
51297;BME280;37380;45.186;9.792;2023-03-26T09:33:16;100371.78;;;16.53;100.00
51297;BME280;37380;45.186;9.792;2023-03-26T09:37:59;100358.00;;;17.36;100.00
51297;BME280;37380;45.186;9.792;2023-03-26T09:40:38;100299.81;;;15.38;100.00
51297;BME280;37380;45.186;9.792;2023-03-26T10:02:01;100297.00;;;16.41;100.00
51297;BME280;37380;45.186;9.792;2023-03-26T10:09:54;100284.72;;;16.50;100.00
51297;BME280;37380;45.186;9.792;2023-03-26T10:12:38;100289.75;;;15.98;100.00
51297;BME280;37380;45.186;9.792;2023-03-26T10:15:31;100291.03;;;16.85;100.00
51297;BME280;37380;45.186;9.792;2023-03-26T10:29:43;100255.88;;;15.33;100.00
51297;BME280;37380;45.186;9.792;2023-03-26T10:32:56;100215.88;;;15.80;100.00
51297;BME280;37380;45.186;9.792;2023-03-26T10:41:02;100286.19;;;15.93;100.00
51297;BME280;37380;45.186;9.792;2023-03-26T10:52:05;100242.56;;;16.57;100.00
51297;BME280;37380;45.186;9.792;2023-03-26T10:54:54;100270.72;;;16.74;100.00
51297;BME280;37380;45.186;9.792;2023-03-26T10:58:20;100255.88;;;17.12;100.00
51297;BME280;37380;45.186;9.792;2023-03-26T11:08:01;100176.69;;;17.13;100.00
51297;BME280;37380;45.186;9.792;2023-03-26T11:10:57;100202.13;;;17.65;98.57
51297;BME280;37380;45.186;9.792;2023-03-26T11:16:03;100180.13;;;16.51;96.66
51297;BME280;37380;45.186;9.792;2023-03-26T11:19:01;100213.63;;;17.55;97.79
51297;BME280;37380;45.186;9.792;2023-03-26T11:25:33;100223.22;;;17.99;85.00
51297;BME280;37380;45.186;9.792;2023-03-26T11:30:53;100205.66;;;17.67;92.13
51297;BME280;37380;45.186;9.792;2023-03-26T11:33:29;100188.06;;;17.51;91.09
51297;BME280;37380;45.186;9.792;2023-03-26T11:36:06;100195.16;;;17.15;90.09
51297;BME280;37380;45.186;9.792;2023-03-26T11:41:14;100101.66;;;17.96;89.84
51297;BME280;37380;45.186;9.792;2023-03-26T11:44:02;100197.75;;;19.32;80.91
51297;BME280;37380;45.186;9.792;2023-03-26T11:46:35;100179.03;;;20.26;78.56
51297;BME280;37380;45.186;9.792;2023-03-26T11:49:10;100150.81;;;20.19;71.14
51297;BME280;37380;45.186;9.792;2023-03-26T11:51:40;100130.31;;;20.92;66.02
51297;BME280;37380;45.186;9.792;2023-03-26T11:54:14;100163.34;;;21.76;64.69
51297;BME280;37380;45.186;9.792;2023-03-26T11:57:10;100164.41;;;22.09;65.08
51297;BME280;37380;45.186;9.792;2023-03-26T12:00:11;100148.44;;;21.18;64.93
51297;BME280;37380;45.186;9.792;2023-03-26T12:03:14;100152.13;;;20.53;67.52
51297;BME280;37380;45.186;9.792;2023-03-26T12:05:50;100099.59;;;21.25;63.77
51297;BME280;37380;45.186;9.792;2023-03-26T12:08:38;100130.56;;;20.15;71.18
51297;BME280;37380;45.186;9.792;2023-03-26T12:11:12;100052.41;;;20.37;68.38
51297;BME280;37380;45.186;9.792;2023-03-26T12:13:42;100134.06;;;20.15;70.35
51297;BME280;37380;45.186;9.792;2023-03-26T12:16:14;100125.59;;;20.50;71.36
51297;BME280;37380;45.186;9.792;2023-03-26T12:19:26;100112.81;;;20.80;67.29
51297;BME280;37380;45.186;9.792;2023-03-26T12:22:38;100115.44;;;20.80;67.06
51297;BME280;37380;45.186;9.792;2023-03-26T12:25:36;100106.13;;;20.54;66.21
51297;BME280;37380;45.186;9.792;2023-03-26T12:30:51;100081.41;;;19.10;73.39
51297;BME280;37380;45.186;9.792;2023-03-26T12:33:27;100081.50;;;19.01;73.20
51297;BME280;37380;45.186;9.792;2023-03-26T12:35:56;100092.59;;;19.38;72.37
51297;BME280;37380;45.186;9.792;2023-03-26T12:38:31;100055.78;;;19.12;72.33
51297;BME280;37380;45.186;9.792;2023-03-26T12:43:54;100079.13;;;18.73;80.99
51297;BME280;37380;45.186;9.792;2023-03-26T12:46:44;100024.69;;;18.42;78.52
51297;BME280;37380;45.186;9.792;2023-03-26T12:49:33;100025.09;;;17.79;80.89
51297;BME280;37380;45.186;9.792;2023-03-26T13:16:59;99977.03;;;16.66;86.27
51297;BME280;37380;45.186;9.792;2023-03-26T13:26:42;99979.66;;;16.74;84.73
51297;BME280;37380;45.186;9.792;2023-03-26T13:29:25;99970.03;;;16.55;86.11
51297;BME280;37380;45.186;9.792;2023-03-26T13:32:02;99975.22;;;17.04;83.60
51297;BME280;37380;45.186;9.792;2023-03-26T13:37:36;99968.03;;;17.46;78.78
51297;BME280;37380;45.186;9.792;2023-03-26T13:40:20;99968.22;;;16.72;82.16
51297;BME280;37380;45.186;9.792;2023-03-26T13:49:00;99963.84;;;16.69;88.68
51297;BME280;37380;45.186;9.792;2023-03-26T13:51:34;99962.13;;;16.35;90.73
51297;BME280;37380;45.186;9.792;2023-03-26T13:54:40;99945.47;;;16.19;96.73
51297;BME280;37380;45.186;9.792;2023-03-26T13:58:02;99948.09;;;16.03;100.00
51297;BME280;37380;45.186;9.792;2023-03-26T14:01:18;99936.69;;;16.32;98.65
51297;BME280;37380;45.186;9.792;2023-03-26T14:04:25;99925.25;;;16.15;99.84
51297;BME280;37380;45.186;9.792;2023-03-26T14:07:09;99917.34;;;16.15;100.00
51297;BME280;37380;45.186;9.792;2023-03-26T14:09:41;99920.81;;;16.50;98.04
51297;BME280;37380;45.186;9.792;2023-03-26T14:14:52;99922.59;;;16.39;98.96
51297;BME280;37380;45.186;9.792;2023-03-26T14:17:35;99916.47;;;16.06;100.00
51297;BME280;37380;45.186;9.792;2023-03-26T14:23:41;99873.16;;;14.69;100.00
51297;BME280;37380;45.186;9.792;2023-03-26T14:34:44;99887.28;;;13.62;100.00
51297;BME280;37380;45.186;9.792;2023-03-26T14:48:46;99932.81;;;11.78;100.00
51297;BME280;37380;45.186;9.792;2023-03-26T14:51:31;99911.84;;;11.28;100.00
51297;BME280;37380;45.186;9.792;2023-03-26T14:54:13;99910.94;;;11.26;100.00
51297;BME280;37380;45.186;9.792;2023-03-26T15:29:02;99915.03;;;10.31;100.00
51297;BME280;37380;45.186;9.792;2023-03-26T15:31:54;99942.91;;;10.32;100.00
51297;BME280;37380;45.186;9.792;2023-03-26T15:38:14;99932.06;;;10.17;100.00
51297;BME280;37380;45.186;9.792;2023-03-26T15:41:20;99913.84;;;10.18;100.00
51297;BME280;37380;45.186;9.792;2023-03-26T15:47:00;99910.28;;;10.92;100.00
51297;BME280;37380;45.186;9.792;2023-03-26T15:52:38;99880.00;;;11.03;100.00
51297;BME280;37380;45.186;9.792;2023-03-26T15:55:33;99882.56;;;11.47;100.00
51297;BME280;37380;45.186;9.792;2023-03-26T16:08:38;99862.09;;;11.23;100.00
51297;BME280;37380;45.186;9.792;2023-03-26T16:11:13;99834.66;;;11.51;100.00
51297;BME280;37380;45.186;9.792;2023-03-26T16:13:48;99612.00;;;10.72;100.00
51297;BME280;37380;45.186;9.792;2023-03-26T16:16:21;99721.66;;;11.19;100.00
51297;BME280;37380;45.186;9.792;2023-03-26T16:22:34;99800.97;;;11.20;100.00
51297;BME280;37380;45.186;9.792;2023-03-26T16:25:33;99773.34;;;11.34;100.00
51297;BME280;37380;45.186;9.792;2023-03-26T16:28:30;99698.78;;;11.04;100.00
51297;BME280;37380;45.186;9.792;2023-03-26T16:36:41;99783.84;;;11.37;100.00
51297;BME280;37380;45.186;9.792;2023-03-26T16:39:18;99778.13;;;10.61;100.00
51297;BME280;37380;45.186;9.792;2023-03-26T16:42:02;99826.06;;;10.63;100.00
51297;BME280;37380;45.186;9.792;2023-03-26T16:47:47;99800.06;;;10.69;100.00
51297;BME280;37380;45.186;9.792;2023-03-26T16:53:14;99803.13;;;10.92;100.00
51297;BME280;37380;45.186;9.792;2023-03-26T17:03:32;99809.25;;;10.94;100.00
51297;BME280;37380;45.186;9.792;2023-03-26T17:06:25;99793.84;;;11.09;100.00
51297;BME280;37380;45.186;9.792;2023-03-26T17:11:48;99782.81;;;11.27;100.00
51297;BME280;37380;45.186;9.792;2023-03-26T17:17:11;99787.22;;;11.30;100.00
51297;BME280;37380;45.186;9.792;2023-03-26T17:22:57;99784.56;;;11.28;100.00
51297;BME280;37380;45.186;9.792;2023-03-26T17:25:42;99740.69;;;11.10;100.00
51297;BME280;37380;45.186;9.792;2023-03-26T17:28:48;99759.34;;;11.29;100.00
51297;BME280;37380;45.186;9.792;2023-03-26T17:31:31;99737.50;;;11.27;100.00
51297;BME280;37380;45.186;9.792;2023-03-26T17:42:30;99608.69;;;10.32;100.00
51297;BME280;37380;45.186;9.792;2023-03-26T17:45:21;99743.69;;;11.32;100.00
51297;BME280;37380;45.186;9.792;2023-03-26T17:47:59;99678.03;;;10.63;100.00
51297;BME280;37380;45.186;9.792;2023-03-26T17:50:37;99621.91;;;9.96;100.00
51297;BME280;37380;45.186;9.792;2023-03-26T17:53:23;99592.16;;;9.86;100.00
51297;BME280;37380;45.186;9.792;2023-03-26T17:56:28;99754.94;;;10.78;100.00
51297;BME280;37380;45.186;9.792;2023-03-26T17:59:17;99603.41;;;9.84;100.00
51297;BME280;37380;45.186;9.792;2023-03-26T18:02:26;99614.22;;;10.02;100.00
51297;BME280;37380;45.186;9.792;2023-03-26T18:05:09;99746.28;;;10.80;100.00
51297;BME280;37380;45.186;9.792;2023-03-26T18:20:20;99681.75;;;9.87;100.00
51297;BME280;37380;45.186;9.792;2023-03-26T18:24:39;99784.03;;;10.52;100.00
51297;BME280;37380;45.186;9.792;2023-03-26T18:33:56;99658.69;;;9.66;100.00
51297;BME280;37380;45.186;9.792;2023-03-26T18:38:41;99794.25;;;10.40;100.00
51297;BME280;37380;45.186;9.792;2023-03-26T18:47:36;99677.84;;;9.66;100.00
51297;BME280;37380;45.186;9.792;2023-03-26T18:57:29;99803.47;;;10.24;100.00
51297;BME280;37380;45.186;9.792;2023-03-26T19:07:20;99760.78;;;10.24;100.00
51297;BME280;37380;45.186;9.792;2023-03-26T19:16:51;99763.16;;;10.11;100.00
51297;BME280;37380;45.186;9.792;2023-03-26T19:19:35;99570.69;;;8.77;100.00
51297;BME280;37380;45.186;9.792;2023-03-26T19:22:29;99764.75;;;10.05;100.00
51297;BME280;37380;45.186;9.792;2023-03-26T19:24:59;99747.16;;;9.96;100.00
51297;BME280;37380;45.186;9.792;2023-03-26T19:27:27;99690.69;;;9.57;100.00
51297;BME280;37380;45.186;9.792;2023-03-26T19:29:54;99763.63;;;9.92;100.00
51297;BME280;37380;45.186;9.792;2023-03-26T19:32:30;99757.56;;;9.94;100.00
51297;BME280;37380;45.186;9.792;2023-03-26T19:35:00;99749.53;;;9.84;100.00
51297;BME280;37380;45.186;9.792;2023-03-26T19:37:30;99765.09;;;9.81;100.00
51297;BME280;37380;45.186;9.792;2023-03-26T19:40:18;99766.78;;;9.79;100.00
51297;BME280;37380;45.186;9.792;2023-03-26T19:42:47;99735.81;;;9.55;100.00
51297;BME280;37380;45.186;9.792;2023-03-26T19:45:20;99725.13;;;9.44;100.00
51297;BME280;37380;45.186;9.792;2023-03-26T19:47:48;99768.16;;;9.63;100.00
51297;BME280;37380;45.186;9.792;2023-03-26T19:50:40;99756.69;;;9.55;100.00
51297;BME280;37380;45.186;9.792;2023-03-26T19:53:19;99738.28;;;9.48;100.00
51297;BME280;37380;45.186;9.792;2023-03-26T19:56:21;99706.31;;;9.19;100.00
51297;BME280;37380;45.186;9.792;2023-03-26T19:59:22;99730.94;;;9.34;100.00
51297;BME280;37380;45.186;9.792;2023-03-26T20:02:24;99715.91;;;9.22;100.00
51297;BME280;37380;45.186;9.792;2023-03-26T20:05:28;99660.03;;;8.74;100.00
51297;BME280;37380;45.186;9.792;2023-03-26T20:07:57;99764.03;;;9.35;100.00
51297;BME280;37380;45.186;9.792;2023-03-26T20:10:26;99728.97;;;9.23;100.00
51297;BME280;37380;45.186;9.792;2023-03-26T20:12:53;99756.34;;;9.41;100.00
51297;BME280;37380;45.186;9.792;2023-03-26T20:15:24;99760.16;;;9.55;100.00
51297;BME280;37380;45.186;9.792;2023-03-26T20:17:58;99731.13;;;9.40;100.00
51297;BME280;37380;45.186;9.792;2023-03-26T20:20:53;99718.50;;;9.20;100.00
51297;BME280;37380;45.186;9.792;2023-03-26T20:23:20;99696.28;;;9.00;100.00
51297;BME280;37380;45.186;9.792;2023-03-26T20:25:50;99741.16;;;9.24;100.00
51297;BME280;37380;45.186;9.792;2023-03-26T20:28:20;99688.16;;;8.88;100.00
51297;BME280;37380;45.186;9.792;2023-03-26T20:30:48;99624.00;;;8.58;100.00
51297;BME280;37380;45.186;9.792;2023-03-26T20:33:22;99675.56;;;8.71;100.00
51297;BME280;37380;45.186;9.792;2023-03-26T20:35:52;99671.06;;;8.64;100.00
51297;BME280;37380;45.186;9.792;2023-03-26T20:38:20;99728.56;;;9.06;100.00
51297;BME280;37380;45.186;9.792;2023-03-26T20:41:05;99718.63;;;8.92;100.00